Have a Safe July 4th! 

Flight Track Log - Related Links

Times and Time Zones

All times are in EDT time to prevent confusion due to time zone crossing. See the QLK117D flight status page for this flight to view local times or setup timezone preferences in your user account.

Time Position Orientation Groundspeed Altitude Reporting Facility
EDT Latitude Longitude Course Direction KTS MPH feet Rate Location/Type
Mon 02:07:45 AM -30.3545 153.1669 254° West 210 242 3,500  Level Aus ATC (RADAR)
Mon 02:08:35 AM -30.3663 153.1179 254° West 183 211 5,700 2,471 Climbing Aus ATC (RADAR)
Mon 02:09:10 AM -30.3739 153.0848 255° West 178 205 7,000 2,475 Climbing Aus ATC (RADAR)
Mon 02:09:55 AM -30.4024 153.0535 223° Southwest 182 209 9,000 2,057 Climbing Aus ATC (RADAR)
Mon 02:10:20 AM -30.4215 153.0380 215° Southwest 195 224 9,400 1,662 Climbing Aus ATC (RADAR)
Mon 02:11:00 AM -30.4550 153.0121 214° Southwest 213 245 10,800 1,920 Climbing Aus ATC (RADAR)
Mon 02:12:00 AM -30.5048 152.9725 214° Southwest 220 253 12,600 1,553 Climbing Aus ATC (RADAR)
Mon 02:12:25 AM -30.5262 152.9540 217° Southwest 227 261 13,000 1,100 Climbing Aus ATC (RADAR)
Mon 02:13:00 AM -30.5587 152.9274 215° Southwest 242 278 13,700 1,291 Climbing Aus ATC (RADAR)
Mon 02:13:44 AM -30.6014 152.8928 215° Southwest 249 287 14,700 1,519 Climbing Aus ATC (RADAR)
Mon 02:14:19 AM -30.6343 152.8650 216° Southwest 251 289 15,700 1,500 Climbing Aus ATC (RADAR)
Mon 02:15:04 AM -30.6758 152.8317 215° Southwest 243 280 16,700 1,200 Climbing Aus ATC (RADAR)
Mon 02:15:29 AM -30.6992 152.8129 215° Southwest 245 282 17,100 900 Climbing Aus ATC (RADAR)
Mon 02:16:04 AM -30.7326 152.7856 215° Southwest 251 289 17,600 918 Climbing Aus ATC (RADAR)
Mon 02:16:54 AM -30.7801 152.7464 215° Southwest 250 288 18,400 825 Climbing Aus ATC (RADAR)
Mon 02:17:24 AM -30.8088 152.7227 215° Southwest 253 291 18,700 738 Climbing Aus ATC (RADAR)
Mon 02:17:59 AM -30.8422 152.6952 215° Southwest 254 292 19,200 975 Climbing Aus ATC (RADAR)
Mon 02:18:44 AM -30.8855 152.6592 215° Southwest 256 295 20,000 600 Climbing Aus ATC (RADAR)
Mon 02:19:19 AM -30.9206 152.6303 215° Southwest 266 306 20,000  Level Aus ATC (RADAR)
Mon 02:20:04 AM -30.9681 152.5916 215° Southwest 279 321 20,000  Level Aus ATC (RADAR)
Mon 02:20:29 AM -30.9952 152.5689 216° Southwest 287 330 20,000  Level Aus ATC (RADAR)
Mon 02:21:04 AM -31.0338 152.5374 215° Southwest 291 335 20,000  Level Aus ATC (RADAR)
Mon 02:22:04 AM -31.1015 152.4815 215° Southwest 300 345 20,000  Level Aus ATC (RADAR)
Mon 02:22:29 AM -31.1296 152.4586 215° Southwest 298 343 20,000  Level Aus ATC (RADAR)
Mon 02:23:04 AM -31.1694 152.4253 216° Southwest 301 346 20,000  Level Aus ATC (RADAR)
Mon 02:23:48 AM -31.2206 152.3827 215° Southwest 300 345 20,000  Level Aus ATC (RADAR)
Mon 02:24:23 AM -31.2603 152.3497 215° Southwest 302 348 20,000  Level Aus ATC (RADAR)
Mon 02:25:08 AM -31.3108 152.3073 216° Southwest 299 344 20,000  Level Aus ATC (RADAR)
Mon 02:25:33 AM -31.3392 152.2842 215° Southwest 299 344 20,000  Level Aus ATC (RADAR)
Mon 02:26:08 AM -31.3785 152.2513 216° Southwest 299 344 20,000  Level Aus ATC (RADAR)
Mon 02:27:08 AM -31.4455 152.1956 215° Southwest 295 339 20,000 565 Level Aus ATC (RADAR)
Mon 02:27:33 AM -31.4724 152.1726 216° Southwest 288 331 20,800 1,300 Climbing Aus ATC (RADAR)
Mon 02:28:08 AM -31.5075 152.1431 216° Southwest 270 311 21,300 847 Climbing Aus ATC (RADAR)
Mon 02:28:58 AM -31.5557 152.1023 216° Southwest 253 291 22,000 494 Climbing Aus ATC (RADAR)
Mon 02:29:33 AM -31.5884 152.0760 214° Southwest 245 282 22,000  Level Aus ATC (RADAR)
Mon 02:30:18 AM -31.6282 152.0407 217° Southwest 240 276 22,000  Level Aus ATC (RADAR)
Mon 02:30:43 AM -31.6503 152.0233 214° Southwest 234 269 22,000  Level Aus ATC (RADAR)
Mon 02:31:18 AM -31.6806 151.9981 215° Southwest 229 264 22,000  Level Aus ATC (RADAR)
Mon 02:32:28 AM -31.7388 151.9497 215° Southwest 217 250 22,000  Level Aus ATC (RADAR)
Mon 02:32:58 AM -31.7639 151.9285 216° Southwest 219 252 22,000  Level Aus ATC (RADAR)
Mon 02:33:33 AM -31.7934 151.9038 215° Southwest 219 252 22,000  Level Aus ATC (RADAR)
Mon 02:34:17 AM -31.8314 151.8703 217° Southwest 223 257 22,000  Level Aus ATC (RADAR)
Mon 02:34:53 AM -31.8608 151.8461 215° Southwest 223 257 22,000  Level Aus ATC (RADAR)
Mon 02:35:37 AM -31.9005 151.8134 215° Southwest 230 265 22,000  Level Aus ATC (RADAR)
Mon 02:36:02 AM -31.9227 151.7951 215° Southwest 231 266 22,000  Level Aus ATC (RADAR)
Mon 02:37:02 AM -31.9767 151.7488 216° Southwest 238 274 22,000  Level Aus ATC (RADAR)
Mon 02:37:27 AM -31.9997 151.7298 215° Southwest 239 275 22,000  Level Aus ATC (RADAR)
Mon 02:37:52 AM -32.0228 151.7098 216° Southwest 241 277 22,000  Level Aus ATC (RADAR)
Mon 02:38:28 AM -32.0547 151.6823 216° Southwest 239 275 22,000  Level Aus ATC (RADAR)
Mon 02:39:17 AM -32.0998 151.6445 215° Southwest 234 269 22,000  Level Aus ATC (RADAR)
Mon 02:39:57 AM -32.1349 151.6143 216° Southwest 232 267 22,000  Level Aus ATC (RADAR)
Mon 02:40:42 AM -32.1744 151.5814 215° Southwest 229 264 22,000  Level Aus ATC (RADAR)
Mon 02:41:07 AM -32.1961 151.5626 216° Southwest 227 261 22,000  Level Aus ATC (RADAR)
Mon 02:42:07 AM -32.2461 151.5195 216° Southwest 219 252 22,000  Level Aus ATC (RADAR)
Mon 02:42:32 AM -32.2669 151.5021 215° Southwest 218 251 22,000  Level Aus ATC (RADAR)
Mon 02:43:02 AM -32.2923 151.4805 216° Southwest 222 255 22,000  Level Aus ATC (RADAR)
Mon 02:43:36 AM -32.3224 151.4554 215° Southwest 225 259 22,000  Level Aus ATC (RADAR)
Mon 02:44:17 AM -32.3562 151.4259 216° Southwest 222 255 22,000  Level Aus ATC (RADAR)
Mon 02:44:56 AM -32.3895 151.3967 216° Southwest 222 255 22,000  Level Aus ATC (RADAR)
Mon 02:45:41 AM -32.4283 151.3640 215° Southwest 226 260 22,000  Level Aus ATC (RADAR)
Mon 02:46:06 AM -32.4495 151.3454 217° Southwest 226 260 22,000  Level Aus ATC (RADAR)
Mon 02:47:06 AM -32.5005 151.3027 215° Southwest 220 253 22,000  Level Aus ATC (RADAR)
Mon 02:47:31 AM -32.5210 151.2843 217° Southwest 220 253 22,000  Level Aus ATC (RADAR)
Mon 02:47:56 AM -32.5420 151.2667 215° Southwest 219 252 22,000  Level Aus ATC (RADAR)
Mon 02:48:31 AM -32.5762 151.2514 201° Southwest 223 257 22,000  Level Aus ATC (RADAR)
Mon 02:49:21 AM -32.6348 151.2527 179° South 242 278 22,000  Level Aus ATC (RADAR)
Mon 02:49:56 AM -32.6740 151.2511 182° South 249 287 22,000  Level Aus ATC (RADAR)
Mon 02:50:41 AM -32.7262 151.2490 182° South 250 288 22,000  Level Aus ATC (RADAR)
Mon 02:51:11 AM -32.7608 151.2470 183° South 248 285 22,000 -467 Level Aus ATC (RADAR)
Mon 02:52:11 AM -32.8339 151.2539 175° South 269 310 21,300 -776 Descending Aus ATC (RADAR)
Mon 02:52:36 AM -32.8677 151.2629 167° South 289 333 20,900 -960 Descending Aus ATC (RADAR)
Mon 02:53:01 AM -32.9001 151.2692 171° South 287 330 20,500 -900 Descending Aus ATC (RADAR)
Mon 02:53:36 AM -32.9440 151.2803 168° South 277 319 20,000 -857 Descending Aus ATC (RADAR)
Mon 02:54:25 AM -33.0050 151.2974 167° South 271 312 19,300 -776 Descending Aus ATC (RADAR)
Mon 02:55:01 AM -33.0467 151.3084 168° South 265 305 18,900 -675 Descending Aus ATC (RADAR)
Mon 02:55:45 AM -33.0992 151.3167 172° South 256 295 18,400 -973 Descending Aus ATC (RADAR)
Mon 02:56:15 AM -33.1340 151.3156 182° South 254 292 17,700 -1,600 Descending Aus ATC (RADAR)
Mon 02:57:15 AM -33.2008 151.3129 182° South 240 276 16,000 -1,765 Descending Aus ATC (RADAR)
Mon 02:57:40 AM -33.2310 151.3125 181° South 254 292 15,200 -1,733 Descending Aus ATC (RADAR)
Mon 02:58:00 AM -33.2543 151.3044 196° South 265 305 14,700 -1,636 Descending Aus ATC (RADAR)
Mon 02:58:35 AM -33.2899 151.2810 209° Southwest 252 290 13,700 -1,412 Descending Aus ATC (RADAR)
Mon 02:59:25 AM -33.3397 151.2501 207° Southwest 244 281 12,700 -1,256 Descending Aus ATC (RADAR)
Mon 03:00:01 AM -33.3756 151.2281 207° Southwest 249 287 11,900 -1,425 Descending Aus ATC (RADAR)
Mon 03:00:45 AM -33.4227 151.2068 201° Southwest 253 291 10,800 -1,478 Descending Aus ATC (RADAR)
Mon 03:01:10 AM -33.4518 151.2056 182° South 253 291 10,200 -1,400 Descending Aus ATC (RADAR)
Mon 03:01:45 AM -33.4923 151.2051 181° South 249 287 9,400 -1,440 Descending Aus ATC (RADAR)
Mon 03:02:50 AM -33.5685 151.2021 182° South 252 290 7,800 -1,483 Descending Aus ATC (RADAR)
Mon 03:03:14 AM -33.5972 151.2004 183° South 240 276 7,200 -750 Descending Aus ATC (RADAR)
Mon 03:03:54 AM -33.6412 151.1993 181° South 234 269 7,000 -141 Descending Aus ATC (RADAR)
Mon 03:04:39 AM -33.6897 151.2002 179° South 232 267 7,000  Level Aus ATC (RADAR)
Mon 03:05:14 AM -33.7282 151.2218 155° Southeast 264 304 7,000  Level Aus ATC (RADAR)
Mon 03:06:04 AM -33.7853 151.2509 157° South 259 298 7,000  Level Aus ATC (RADAR)
Mon 03:06:19 AM -33.8016 151.2599 155° Southeast 266 306 7,000  Level Aus ATC (RADAR)
Mon 03:06:54 AM -33.8408 151.2811 156° South 264 304 7,000 -273 Level Aus ATC (RADAR)
Mon 03:08:09 AM -33.9256 151.3280 155° Southeast 257 296 6,500 -379 Descending Aus ATC (RADAR)
Mon 03:08:29 AM -33.9476 151.3395 157° South 254 292 6,400 -545 Descending Aus ATC (RADAR)
Mon 03:09:04 AM -33.9871 151.3530 164° South 250 288 6,000 -847 Descending Aus ATC (RADAR)
Mon 03:09:54 AM -34.0440 151.3643 171° South 244 281 5,200 -918 Descending Aus ATC (RADAR)
Mon 03:10:29 AM -34.0839 151.3718 171° South 243 280 4,700 -911 Descending Aus ATC (RADAR)
Mon 03:11:13 AM -34.1226 151.3480 207° Southwest 216 249 4,000 -870 Descending Aus ATC (RADAR)
Mon 03:11:38 AM -34.1350 151.3243 238° Southwest 204 235 3,700 -675 Descending Aus ATC (RADAR)
Mon 03:12:33 AM -34.1247 151.2726 284° West 193 222 3,100 -675 Descending Aus ATC (RADAR)
Mon 03:12:58 AM -34.1085 151.2552 318° Northwest 183 211 2,800 -720 Descending Aus ATC (RADAR)
Mon 03:13:23 AM -34.0929 151.2406 322° Northwest 170 196 2,500 -738 Descending Aus ATC (RADAR)
Mon 03:14:03 AM -34.0681 151.2194 325° Northwest 162 186 2,000 -825 Descending Aus ATC (RADAR)
Mon 03:14:43 AM -34.0395 151.2116 347° North 154 177 1,400 -800 Descending Aus ATC (RADAR)
Mon 03:15:18 AM -34.0189 151.2064 348° North 127 146 1,000 -635 Descending Aus ATC (RADAR)
Mon 03:16:08 AM -33.9909 151.1992 348° North 122 140 500 -646 Descending Aus ATC (RADAR)
Mon 03:16:23 AM -33.9822 151.1970 348° North 125 144 300 -800 Descending Aus ATC (RADAR)

Login

Don't have an account? Register now (free) for customized features, flight alerts, and more!